Airfield :
LOGIN :

Register | Disclaimer

   EN    FR    IT 

 










Legend :    VFR   Marginal VFR   IFR   Intensive IFR   Very Intensive IFR
Visi :
Ceiling :
>= 8 km
>= 3000ft
5 to 8 km
1000 to 3000 ft
1500m to 5 km
500 to 1000 ft
800 to 1500m
200 to 500 ft
< 800m
< 200 ft
Symbols :   Thunderstorms  Fog  Heavy snow  Heavy precipitations  Wind > 20 kt
SIGMETs :     Misc.  Thunderstorms  Icing  Turbulence  Mountain Waves  Volcanic Ashes






- Airport Elevation : 794 ft


LKCV - Čáslav Air Base

CURRENT METAR :
  • 060100Z VRB02KT CAVOK 13/12 Q1007 NOSIG RMK BLU BLU

EXPIRED METARs :
  • 060030Z 25004KT CAVOK 13/12 Q1007 NOSIG RMK BLU BLU
  • 060000Z 25006KT 9999 FEW008 BKN100 13/12 Q1007 NOSIG
  • 052330Z 26004KT 9999 SCT030 13/12 Q1007 NOSIG RMK BLU BLU
  • 052300Z 26003KT 9999 FEW033 SCT040 13/12 Q1007 NOSIG RMK BLU BLU
  • 052230Z VRB02KT CAVOK 13/12 Q1007 NOSIG RMK BLU BLU

TAF TAF LKCV
Valid from the 06 at 00:00 until the 07 at 00:00 UTC


052300Z 0600/0700 28004KT CAVOK
PROB40
TEMPO 0600/0606 3000 BR BKN010
TEMPO 0607/0614 BKN030
TEMPO 0611/0620 28012G22KT 6000 SHRA BKN025CB



MET'MAP, your aeronautical weather chart ! - Copyright ORBIFLY December 2007 - Disclaimer

ORBIFLY MET'MAP TEAM :

Programming & Development : Alexandra Zaïnal
Concept & original design : Baudouin d'Aumeries
Assistance for programming : Marc-Olivier Méhu
Technical & hardware support : Manuel Goepfert

Contact : metmap@orbifly.com




SOURCES & CREDITS :

   NOAA